ウィニペグ の空港の天気 - METARとTAF

ウィニペグ国際空港 ( CYWG / YWG ) - カナダ マニトバ州ウィニペグ
飛行場実況気象(Metar)
観測時間08/08 09:00 CDT (08/08 14:00 UTC)
風向・風速西 5m/s
視程10km以上
天気現象
少しの雲 雲底高度 6710m
気温20℃
湿度53%
気圧1012.2hPa
METARCYWG 081400Z 27010KT 15SM FEW220 20/10 A2988 RMK CI1 SLP122 DENSITY ALT 1600FT
過去の天気等 Google飛行場航空写真 Wunderground天気予報

過去48時間のMETAR

飛行場予報(TAF)
発表時間: 8/08 06:38 CDT (8/08 11:38 UTC)
予報対象時間: 8日7時 CDT ~ 9日7時 CDT
風向・風速西北西 4m/s
視程10km以上
全天の4割程度の雲 雲底高度 7620m
8日9時 CDT から
風向・風速西南西 6m/s 瞬間風速 11m/s
視程10km以上
なし
8日21時 CDT から
風向・風速南南西 5m/s
視程10km以上
なし
TAF CYWG 081138Z 0812/0912 29008KT P6SM SCT250
FM081400 25012G22KT P6SM SKC
FM090200 20010KT P6SM SKC RMK NXT FCST BY 081800Z